HomeShort term forecast

Short term forecast

Graphical weather forecast for the next 48 hours for Montreal:
Short term forecast
This weather forecast is automatically refreshed every 3 hours.

Hourly Experimental Forecast for the next 48 hours ®

Overall summary: Possible drizzle tomorrow morning.

 Date & Hour   Temp   Feel   Baro   Hum   Speed & Bearing   Wind Gust   Precip.%   Precip.   Visibility   Cloud cover   Conditions 
 18/08/2022 - 02:00  19.0°C  19.0°C  1012.7 hPa  74%  8.6 km/h   16.7 km/h  26%  0.07 mm/h  16.1km  94%  Possible Drizzle 
 18/08/2022 - 03:00  18.6°C  18.6°C  1012.3 hPa  76%  9.3 km/h   20.1 km/h  8%  0.02 mm/h  16.1km  95%  Overcast 
 18/08/2022 - 04:00  18.1°C  18.1°C  1012.0 hPa  77%  9.4 km/h   18.7 km/h  12%  0.04 mm/h  16.1km  95%  Overcast 
 18/08/2022 - 05:00  17.5°C  17.5°C  1011.5 hPa  78%  9.0 km/h   16.8 km/h  18%  0.06 mm/h  16.1km  94%  Overcast 
 18/08/2022 - 06:00  17.3°C  17.3°C  1011.2 hPa  79%  10.4 km/h   20.6 km/h  17%  0.05 mm/h  16.1km  94%  Overcast 
 18/08/2022 - 07:00  17.6°C  17.6°C  1010.9 hPa  81%  12.0 km/h   24.9 km/h  16%  0.05 mm/h  16.1km  95%  Overcast 
 18/08/2022 - 08:00  18.4°C  18.4°C  1011.1 hPa  80%  13.5 km/h   28.8 km/h  9%  0.02 mm/h  16.1km  94%  Overcast 
 18/08/2022 - 09:00  19.4°C  19.4°C  1011.1 hPa  78%  13.5 km/h   29.4 km/h  11%  0.04 mm/h  16.1km  93%  Overcast 
 18/08/2022 - 10:00  20.7°C  20.7°C  1010.9 hPa  73%  13.7 km/h   29.4 km/h  11%  0.12 mm/h  16.1km  92%  Overcast 
 18/08/2022 - 11:00  22.0°C  22.0°C  1010.7 hPa  66%  14.4 km/h   29.6 km/h  14%  0.19 mm/h  16.1km  93%  Overcast 
 18/08/2022 - 12:00  22.6°C  22.6°C  1010.4 hPa  63%  15.3 km/h   30.0 km/h  7%  0.13 mm/h  16.1km  95%  Overcast 
 18/08/2022 - 13:00  22.8°C  22.8°C  1010.1 hPa  62%  15.7 km/h   29.9 km/h  4%  0.05 mm/h  16.1km  95%  Overcast 
 18/08/2022 - 14:00  22.2°C  22.2°C  1010.7 hPa  64%  15.3 km/h   28.1 km/h  2%  0.01 mm/h  16.1km  93%  Overcast 
 18/08/2022 - 15:00  21.9°C  21.9°C  1010.9 hPa  63%  15.0 km/h   27.4 km/h  0%  --  16.1km  91%  Overcast 
 18/08/2022 - 16:00  21.5°C  21.5°C  1010.8 hPa  62%  14.1 km/h   24.7 km/h  0%  --  16.1km  87%  Mostly Cloudy 
 18/08/2022 - 17:00  21.3°C  21.3°C  1010.8 hPa  62%  12.7 km/h   18.4 km/h  0%  --  16.1km  85%  Mostly Cloudy 
 18/08/2022 - 18:00  21.1°C  21.1°C  1011.0 hPa  63%  11.0 km/h   11.8 km/h  0%  --  16.1km  87%  Mostly Cloudy 
 18/08/2022 - 19:00  20.7°C  20.7°C  1011.2 hPa  65%  8.9 km/h   9.1 km/h  0%  --  16.1km  90%  Overcast 
 18/08/2022 - 20:00  19.8°C  19.8°C  1011.6 hPa  67%  7.9 km/h   7.9 km/h  2%  0.01 mm/h  16.1km  98%  Overcast 
 18/08/2022 - 21:00  19.6°C  19.6°C  1011.9 hPa  68%  7.0 km/h   7.8 km/h  2%  0.01 mm/h  16.1km  97%  Overcast 
 18/08/2022 - 22:00  19.3°C  19.3°C  1011.9 hPa  68%  6.7 km/h   9.6 km/h  0%  --  16.1km  93%  Overcast 
 18/08/2022 - 23:00  19.0°C  19.0°C  1012.1 hPa  68%  6.2 km/h   9.8 km/h  0%  --  16.1km  90%  Overcast 
 19/08/2022 - 00:00  18.4°C  18.4°C  1012.3 hPa  70%  6.4 km/h   9.6 km/h  0%  --  16.1km  90%  Overcast 
 19/08/2022 - 01:00  17.9°C  17.9°C  1012.6 hPa  72%  7.1 km/h   12.3 km/h  0%  --  16.1km  91%  Overcast 
 19/08/2022 - 02:00  17.6°C  17.6°C  1012.8 hPa  75%  7.1 km/h   12.7 km/h  0%  --  16.1km  93%  Overcast 
 19/08/2022 - 03:00  17.0°C  17.0°C  1013.0 hPa  79%  7.2 km/h   12.3 km/h  0%  --  16.1km  95%  Overcast 
 19/08/2022 - 04:00  16.3°C  16.3°C  1013.4 hPa  81%  7.3 km/h   12.8 km/h  3%  0.01 mm/h  16.1km  95%  Overcast 
 19/08/2022 - 05:00  15.9°C  15.9°C  1013.7 hPa  84%  7.3 km/h   12.4 km/h  4%  0.02 mm/h  16.1km  85%  Mostly Cloudy 
 19/08/2022 - 06:00  16.0°C  16.0°C  1014.1 hPa  85%  7.4 km/h   10.6 km/h  3%  0.03 mm/h  16.1km  84%  Mostly Cloudy 
 19/08/2022 - 07:00  16.6°C  16.6°C  1014.5 hPa  84%  7.6 km/h   9.9 km/h  3%  0.03 mm/h  16.1km  67%  Mostly Cloudy 
 19/08/2022 - 08:00  18.0°C  18.0°C  1015.0 hPa  80%  8.0 km/h   8.1 km/h  0%  --  16.1km  67%  Mostly Cloudy 
 19/08/2022 - 09:00  20.0°C  20.1°C  1015.2 hPa  77%  9.4 km/h   9.5 km/h  0%  --  16.1km  58%  Partly Cloudy 
 19/08/2022 - 10:00  22.5°C  22.7°C  1015.5 hPa  73%  10.6 km/h   12.2 km/h  0%  --  16.1km  38%  Partly Cloudy 
 19/08/2022 - 11:00  24.4°C  24.6°C  1015.8 hPa  68%  11.5 km/h   14.2 km/h  0%  --  16.1km  32%  Partly Cloudy 
 19/08/2022 - 12:00  25.8°C  26.1°C  1015.7 hPa  64%  12.5 km/h   14.5 km/h  0%  --  16.1km  34%  Partly Cloudy 
 19/08/2022 - 13:00  26.9°C  27.9°C  1015.6 hPa  60%  14.0 km/h   15.4 km/h  0%  --  16.1km  36%  Partly Cloudy 
 19/08/2022 - 14:00  28.0°C  29.1°C  1015.7 hPa  57%  14.9 km/h   16.1 km/h  0%  --  16.1km  40%  Partly Cloudy 
 19/08/2022 - 15:00  28.7°C  29.7°C  1015.8 hPa  54%  15.1 km/h   17.3 km/h  0%  --  16.1km  31%  Clear 
 19/08/2022 - 16:00  29.0°C  29.9°C  1015.7 hPa  52%  14.7 km/h   18.1 km/h  0%  --  16.1km  35%  Partly Cloudy 
 19/08/2022 - 17:00  28.8°C  29.8°C  1015.6 hPa  53%  13.6 km/h   18.1 km/h  0%  --  16.1km  32%  Partly Cloudy 
 19/08/2022 - 18:00  28.2°C  29.3°C  1015.9 hPa  56%  11.2 km/h   15.8 km/h  0%  --  16.1km  29%  Clear 
 19/08/2022 - 19:00  26.6°C  27.8°C  1016.1 hPa  62%  10.4 km/h   16.5 km/h  0%  --  16.1km  28%  Clear 
 19/08/2022 - 20:00  24.8°C  25.1°C  1016.4 hPa  69%  7.4 km/h   14.1 km/h  2%  0.02 mm/h  16.1km  26%  Clear 
 19/08/2022 - 21:00  23.3°C  23.6°C  1016.8 hPa  76%  7.9 km/h   16.1 km/h  3%  0.03 mm/h  16.1km  22%  Clear 
 19/08/2022 - 22:00  22.2°C  22.6°C  1017.4 hPa  79%  7.9 km/h   13.2 km/h  3%  0.03 mm/h  16.1km  16%  Clear 
 19/08/2022 - 23:00  21.5°C  21.9°C  1017.9 hPa  81%  8.3 km/h   13.4 km/h  4%  0.04 mm/h  16.1km  17%  Clear 
 20/08/2022 - 00:00  21.1°C  21.4°C  1018.3 hPa  82%  7.3 km/h   10.2 km/h  3%  0.03 mm/h  16.1km  26%  Clear 
 20/08/2022 - 01:00  20.5°C  20.8°C  1018.5 hPa  83%  7.1 km/h   15.4 km/h  2%  0.02 mm/h  16.1km  19%  Clear 

 

Past weather and reports

Past weatherFind in this section the past weather conditions, weather archive, graphics, reports and statistics.

Current conditions

Current weather condition for MontrealAll you need to know about the current weather conditions for Montreal. Weather data is updated every 10 minutes.

Weather forecast

Current Montreal weatherSince 2004, celinium.com website has provided accurate weather forecast for Montreal's island.